Habina Airstrip


Codes: AYHN/
Name: Habina Airstrip
City: Habina
Country: Papua New Guinea
Elevation: 6200 ft.

Photos at Habina Airstrip


   Photos courtesy of SpottingLog. You can add your own sightings and photos by signing up for a free trial today.



No photos found.

Weather at Habina Airstrip


Time (UTC)DescriptionTempratureWindCloud coverageVisibilityPressureHumidity
19-Apr-2024 03:00Light Rain23°C7 mph, NE98%10000m1010hPa58%
19-Apr-2024 06:00Light Rain22°C4 mph, NE98%10000m1010hPa66%
19-Apr-2024 09:00Light Rain19°C2 mph, E79%10000m1012hPa86%
19-Apr-2024 12:00Light Rain15°C0 mph, S76%10000m1015hPa98%
19-Apr-2024 15:00Light Rain14°C2 mph, E96%10000m1014hPa99%
19-Apr-2024 18:00Overcast Clouds14°C0 mph, N94%10000m1014hPa98%
19-Apr-2024 21:00Overcast Clouds15°C2 mph, NE100%10000m1016hPa96%
20-Apr-2024 00:00Overcast Clouds21°C4 mph, NE100%10000m1015hPa65%
20-Apr-2024 03:00Light Rain23°C4 mph, NE97%10000m1011hPa61%
20-Apr-2024 06:00Light Rain19°C4 mph, E88%10000m1011hPa83%
20-Apr-2024 09:00Light Rain15°C2 mph, SE85%10000m1014hPa98%
20-Apr-2024 12:00Light Rain15°C0 mph, S79%10000m1016hPa98%
20-Apr-2024 15:00Overcast Clouds14°C0 mph, SE98%10000m1015hPa99%
20-Apr-2024 18:00Overcast Clouds13°C2 mph, S100%10000m1015hPa98%
20-Apr-2024 21:00Overcast Clouds14°C2 mph, SE99%10000m1016hPa97%
21-Apr-2024 00:00Overcast Clouds22°C4 mph, NE87%10000m1014hPa60%
21-Apr-2024 03:00Broken Clouds24°C7 mph, NE64%10000m1010hPa51%
21-Apr-2024 06:00Light Rain20°C4 mph, E82%10000m1010hPa82%
21-Apr-2024 09:00Light Rain16°C2 mph, E100%7262m1013hPa99%
21-Apr-2024 12:00Light Rain16°C2 mph, NE97%9895m1015hPa98%
21-Apr-2024 15:00Overcast Clouds15°C2 mph, NE100%10000m1014hPa94%
21-Apr-2024 18:00Overcast Clouds14°C2 mph, NE100%10000m1014hPa97%
21-Apr-2024 21:00Overcast Clouds15°C2 mph, NE89%10000m1016hPa97%
22-Apr-2024 00:00Light Rain20°C4 mph, NE95%10000m1014hPa74%
22-Apr-2024 03:00Light Rain21°C4 mph, NE94%10000m1011hPa74%
22-Apr-2024 06:00Light Rain19°C4 mph, E93%10000m1010hPa88%
22-Apr-2024 09:00Light Rain16°C2 mph, E99%10000m1013hPa98%
22-Apr-2024 12:00Overcast Clouds15°C2 mph, E96%10000m1016hPa98%
22-Apr-2024 15:00Overcast Clouds13°C2 mph, SE99%8044m1015hPa99%
22-Apr-2024 18:00Overcast Clouds12°C2 mph, S99%10000m1014hPa96%
22-Apr-2024 21:00Overcast Clouds14°C2 mph, SE99%10000m1016hPa96%
23-Apr-2024 00:00Overcast Clouds21°C4 mph, NE89%10000m1014hPa65%
23-Apr-2024 03:00Light Rain21°C4 mph, NE83%10000m1011hPa74%
23-Apr-2024 06:00Light Rain19°C4 mph, E88%6911m1011hPa88%
23-Apr-2024 09:00Light Rain15°C2 mph, E100%10000m1014hPa99%
23-Apr-2024 12:00Overcast Clouds14°C2 mph, SE97%10000m1016hPa99%
23-Apr-2024 15:00Overcast Clouds13°C2 mph, SE98%10000m1016hPa96%
23-Apr-2024 18:00Overcast Clouds12°C2 mph, SE99%10000m1015hPa92%
23-Apr-2024 21:00Overcast Clouds13°C2 mph, SE99%10000m1016hPa90%
24-Apr-2024 00:00Overcast Clouds21°C4 mph, NE99%10000m1015hPa57%